Terminal Aerodrome Forecast
Issued by NWS Huntsville, AL

Home | Current Version | Previous Version | Text Only | Print | Product List | Glossary On
Versions: 1 2 3 4 5 6 7 8 9 10 11 12 13 14
000
FTUS44 KHUN 222325
TAFHSV
TAF
KHSV 222325Z 2300/2324 11006KT P6SM SCT040 SCT250
     FM230600 12003KT 5SM BR SKC
      TEMPO 2308/2312 2SM BR
     FM231500 16006KT P6SM SCT030=

USA.gov is the U.S. government's official web portal to all federal, state and local government web resources and services.